ADDS METAR Data INFO
IDs: Format: Raw Decoded Include TAF

Data at: 0339 UTC 24 Feb 2017

METAR for:KAUS (Austin/Bergstrom Int, TX, US)
Text:KAUS 240253Z 17008KT 10SM CLR 21/16 A2962 RMK AO2 SLP024 T02060156 51026
Temperature: 20.6°C ( 69°F)
Dewpoint: 15.6°C ( 60°F) [RH = 73%]
Pressure (altimeter):29.62 inches Hg (1003.1 mb) [Sea level pressure: 1002.4 mb]
Winds:from the S (170 degrees) at 9 MPH (8 knots; 4.1 m/s)
Visibility:10 or more sm (16+ km)
Ceiling:at least 12,000 feet AGL
Clouds:sky clear below 12,000 feet AGL


Page loaded:  03:39 UTC  |   07:39 PM Pacific  |   08:39 PM Mountain  |   09:39 PM Central  |   10:39 PM Eastern

 

ADVISORIES

FORECASTS

FORECASTS

OBSERVATIONS

USER TOOLS

ABOUT US